Time;durP1;ratioP1;P1;durP2;ratioP2;P2;SDS_P1;SDS_P2;PMS_P1;PMS_P2;Temp;Humidity;BMP_temperature;BMP_pressure;BME280_temperature;BME280_humidity;BME280_pressure;Samples;Min_cycle;Max_cycle;Signal;HPM_P1;HPM_P2
2023/12/04 00:02:04;;;;;;;10.37;10.07;;;-5.80;99.90;;;;;;5115560;27;20251;-81
2023/12/04 00:04:32;;;;;;;10.37;10.07;;;-5.80;99.90;;;;;;5104633;28;20235;-81
2023/12/04 00:06:59;;;;;;;10.83;10.53;;;-5.80;99.90;;;;;;5103943;28;20231;-79
2023/12/04 00:09:27;;;;;;;10.73;10.43;;;-5.80;99.90;;;;;;5104519;28;20238;-79
2023/12/04 00:11:56;;;;;;;10.30;10.00;;;-5.80;99.90;;;;;;5103502;28;20244;-81
2023/12/04 00:14:23;;;;;;;10.70;10.40;;;-5.80;99.90;;;;;;5103549;28;20253;-79
2023/12/04 00:16:50;;;;;;;10.43;10.13;;;-5.80;99.90;;;;;;5103131;28;20345;-81
2023/12/04 00:19:18;;;;;;;10.60;10.30;;;-5.80;99.90;;;;;;5102447;28;20258;-79
2023/12/04 00:21:45;;;;;;;10.37;10.07;;;-5.80;99.90;;;;;;5101711;28;20235;-79
2023/12/04 00:24:12;;;;;;;10.20;9.90;;;-5.80;99.90;;;;;;5103078;27;20226;-79
2023/12/04 00:26:40;;;;;;;10.50;10.20;;;-5.80;99.90;;;;;;5101834;28;20700;-78
2023/12/04 00:29:09;;;;;;;10.37;10.07;;;-5.80;99.90;;;;;;5102672;28;20241;-79
2023/12/04 00:31:36;;;;;;;10.40;10.10;;;-5.80;99.90;;;;;;5106276;28;20264;-79
2023/12/04 00:34:04;;;;;;;10.70;10.40;;;-5.80;99.90;;;;;;5103377;28;20234;-79
2023/12/04 00:36:31;;;;;;;10.10;9.80;;;-5.80;99.90;;;;;;5101727;28;20797;-78
2023/12/04 00:38:58;;;;;;;10.57;10.27;;;-5.80;99.90;;;;;;5102832;28;20239;-79
2023/12/04 00:41:26;;;;;;;10.40;10.10;;;-5.80;99.90;;;;;;5103375;28;20235;-79
2023/12/04 00:43:53;;;;;;;10.40;10.10;;;-5.80;99.90;;;;;;5103861;28;20234;-79
2023/12/04 00:46:22;;;;;;;10.67;10.37;;;-5.80;99.90;;;;;;5102730;28;20223;-81
2023/12/04 00:48:49;;;;;;;10.53;10.23;;;-5.80;99.90;;;;;;5102440;28;20230;-79
2023/12/04 00:51:16;;;;;;;10.63;10.33;;;-5.70;99.90;;;;;;5103472;28;20236;-78
2023/12/04 00:53:44;;;;;;;10.37;10.07;;;-5.70;99.90;;;;;;5103804;28;20234;-79
2023/12/04 00:56:12;;;;;;;10.27;9.97;;;-5.70;99.90;;;;;;5102341;28;20238;-79
2023/12/04 00:58:39;;;;;;;10.33;10.03;;;-5.70;99.90;;;;;;5101934;28;20241;-79
2023/12/04 01:01:07;;;;;;;9.90;9.60;;;-5.70;99.90;;;;;;5101725;28;20326;-79
2023/12/04 01:03:36;;;;;;;10.30;10.00;;;-5.70;99.90;;;;;;5102103;28;20243;-81
2023/12/04 01:06:04;;;;;;;10.53;10.23;;;-5.70;99.90;;;;;;5103126;28;20384;-79
2023/12/04 01:08:31;;;;;;;10.57;10.27;;;-5.70;99.90;;;;;;5110486;28;20208;-80
2023/12/04 01:10:59;;;;;;;10.40;10.10;;;-5.70;99.90;;;;;;5115109;28;20214;-79
2023/12/04 01:13:26;;;;;;;10.63;10.33;;;-5.70;99.90;;;;;;5115895;28;20325;-78
2023/12/04 01:15:53;;;;;;;10.83;10.53;;;-5.60;99.90;;;;;;5116059;28;20230;-79
2023/12/04 01:18:20;;;;;;;10.80;10.50;;;-5.60;99.90;;;;;;5111404;28;20240;-79
2023/12/04 01:20:49;;;;;;;10.67;10.37;;;-5.70;99.90;;;;;;5110518;27;20223;-79
2023/12/04 01:23:17;;;;;;;10.63;10.33;;;-5.60;99.90;;;;;;5111169;28;20235;-79
2023/12/04 01:25:44;;;;;;;10.23;9.93;;;-5.60;99.90;;;;;;5109964;28;20231;-79
2023/12/04 01:28:12;;;;;;;10.57;10.27;;;-5.70;99.90;;;;;;5102653;28;20241;-80
2023/12/04 01:30:39;;;;;;;10.37;10.07;;;-5.70;99.90;;;;;;5101605;28;20239;-79
2023/12/04 01:33:06;;;;;;;10.23;9.93;;;-5.70;99.90;;;;;;5104166;28;20242;-79
2023/12/04 01:35:36;;;;;;;10.70;10.40;;;-5.70;99.90;;;;;;5105116;28;20236;-79
2023/12/04 01:38:05;;;;;;;10.20;9.90;;;-5.60;99.90;;;;;;5104612;28;20228;-79
2023/12/04 01:40:32;;;;;;;10.40;10.10;;;-5.60;99.90;;;;;;5104237;28;20230;-79
2023/12/04 01:43:01;;;;;;;10.43;10.13;;;-5.60;99.90;;;;;;5104689;28;20231;-79
2023/12/04 01:45:28;;;;;;;10.57;10.27;;;-5.70;99.90;;;;;;5104781;28;20259;-80
2023/12/04 01:47:56;;;;;;;10.57;10.27;;;-5.70;99.90;;;;;;5106798;28;20266;-80
2023/12/04 01:50:26;;;;;;;10.67;10.37;;;-5.70;99.90;;;;;;5104521;28;20242;-79
2023/12/04 01:52:55;;;;;;;10.90;10.60;;;-5.70;99.90;;;;;;5105144;28;20238;-79
2023/12/04 01:55:24;;;;;;;10.50;10.20;;;-5.80;99.90;;;;;;5105519;27;20291;-79
2023/12/04 01:57:51;;;;;;;10.70;10.40;;;-5.80;99.90;;;;;;5105023;28;20224;-79
2023/12/04 02:00:20;;;;;;;10.83;10.53;;;-5.80;99.90;;;;;;5104647;28;20227;-79
2023/12/04 02:02:48;;;;;;;10.70;10.40;;;-5.80;99.90;;;;;;5104551;28;20241;-79
2023/12/04 02:05:16;;;;;;;10.53;10.23;;;-5.80;99.90;;;;;;5104286;28;20251;-80
2023/12/04 02:07:43;;;;;;;10.33;10.03;;;-5.80;99.90;;;;;;5104291;27;20235;-80
2023/12/04 02:10:11;;;;;;;10.67;10.37;;;-5.80;99.90;;;;;;5103052;28;20231;-79
2023/12/04 02:12:39;;;;;;;10.40;10.10;;;-5.80;99.90;;;;;;5104194;28;20235;-80
2023/12/04 02:15:08;;;;;;;10.70;10.40;;;-5.80;99.90;;;;;;5103899;28;20235;-80
2023/12/04 02:17:36;;;;;;;10.53;10.23;;;-5.80;99.90;;;;;;5107439;28;20222;-80
2023/12/04 02:20:05;;;;;;;10.47;10.17;;;-5.80;99.90;;;;;;5109735;28;20211;-79
2023/12/04 02:22:32;;;;;;;10.67;10.37;;;-5.80;99.90;;;;;;5111213;28;20227;-79
2023/12/04 02:25:01;;;;;;;10.80;10.50;;;-5.80;99.90;;;;;;5109691;28;20283;-79
2023/12/04 02:27:33;;;;;;;10.73;10.43;;;-5.80;99.90;;;;;;5109843;28;20266;-79
2023/12/04 02:30:02;;;;;;;10.47;10.17;;;-5.80;99.90;;;;;;5107539;28;20236;-79
2023/12/04 02:32:32;;;;;;;10.50;10.20;;;-5.80;99.90;;;;;;5104902;28;20242;-80
2023/12/04 02:35:03;;;;;;;10.27;9.97;;;-5.80;99.90;;;;;;5104498;27;20263;-79
2023/12/04 02:37:31;;;;;;;10.60;10.30;;;-5.70;99.90;;;;;;5104263;28;20284;-80
2023/12/04 02:40:01;;;;;;;10.30;10.00;;;-5.70;99.90;;;;;;5105530;28;20225;-80
2023/12/04 02:42:28;;;;;;;10.57;10.27;;;-5.70;99.90;;;;;;5104989;28;20233;-79
2023/12/04 02:44:56;;;;;;;10.07;9.77;;;-5.60;99.90;;;;;;5103550;28;20289;-79
2023/12/04 02:47:23;;;;;;;10.53;10.23;;;-5.60;99.90;;;;;;5103880;28;20268;-79
2023/12/04 02:49:51;;;;;;;10.50;10.20;;;-5.60;99.90;;;;;;5104324;28;20222;-80
2023/12/04 02:52:18;;;;;;;10.17;9.87;;;-5.60;99.90;;;;;;5102838;28;20262;-79
2023/12/04 02:54:45;;;;;;;10.23;9.93;;;-5.60;99.90;;;;;;5106145;28;20248;-79
2023/12/04 02:57:14;;;;;;;9.77;9.47;;;-5.70;99.90;;;;;;5105491;28;20238;-79
2023/12/04 02:59:42;;;;;;;10.50;10.20;;;-5.70;99.90;;;;;;5105227;28;20287;-79
2023/12/04 03:02:09;;;;;;;10.60;10.30;;;-5.60;99.90;;;;;;5106268;28;20239;-80
2023/12/04 03:04:37;;;;;;;10.23;9.93;;;-5.70;99.90;;;;;;5104362;28;20227;-79
2023/12/04 03:07:04;;;;;;;10.17;9.87;;;-5.70;99.90;;;;;;5104024;28;20297;-79
2023/12/04 03:09:32;;;;;;;10.03;9.73;;;-5.70;99.90;;;;;;5103703;28;20223;-79
2023/12/04 03:14:43;;;;;;;9.83;9.53;;;-5.80;99.90;;;;;;5087564;28;20272;-84
2023/12/04 03:17:11;;;;;;;9.90;9.60;;;-5.70;99.90;;;;;;5088939;28;20283;-85
2023/12/04 03:19:40;;;;;;;10.00;9.70;;;-5.70;99.90;;;;;;5088673;28;20233;-84
2023/12/04 03:22:18;;;;;;;10.00;9.70;;;-5.70;99.90;;;;;;5088140;28;20257;-85
2023/12/04 03:24:58;;;;;;;9.80;9.50;;;-5.70;99.90;;;;;;5090913;28;20228;-84
2023/12/04 03:27:26;;;;;;;9.70;9.40;;;-5.70;99.90;;;;;;5091336;28;20255;-84
2023/12/04 03:29:58;;;;;;;10.23;9.93;;;-5.70;99.90;;;;;;5090276;28;20276;-84
2023/12/04 03:32:25;;;;;;;10.20;9.90;;;-5.70;99.90;;;;;;5093545;28;20248;-84
2023/12/04 03:34:55;;;;;;;9.90;9.60;;;-5.60;99.90;;;;;;5085678;28;20263;-84
2023/12/04 03:37:25;;;;;;;9.70;9.40;;;-5.60;99.90;;;;;;5086268;28;20736;-82
2023/12/04 03:39:55;;;;;;;9.77;9.47;;;-5.60;99.90;;;;;;5086360;28;20214;-82
2023/12/04 03:42:25;;;;;;;10.10;9.80;;;-5.60;99.90;;;;;;5087302;28;20259;-83
2023/12/04 03:47:39;;;;;;;9.70;9.40;;;-5.60;99.90;;;;;;5087182;28;20243;-84
2023/12/04 03:50:08;;;;;;;9.90;9.60;;;-5.50;99.90;;;;;;5087466;28;20219;-85
2023/12/04 03:52:48;;;;;;;9.50;9.20;;;-5.60;99.90;;;;;;5087585;28;20245;-84
2023/12/04 03:55:18;;;;;;;9.60;9.30;;;-5.50;99.90;;;;;;5087727;28;20293;-84
2023/12/04 03:57:46;;;;;;;9.60;9.30;;;-5.50;99.90;;;;;;5086225;28;20224;-84
2023/12/04 04:03:02;;;;;;;9.57;9.27;;;-5.40;99.90;;;;;;5087717;28;20279;-84
2023/12/04 04:05:34;;;;;;;9.47;9.17;;;-5.40;99.90;;;;;;5087675;28;20243;-84
2023/12/04 04:08:01;;;;;;;9.63;9.33;;;-5.40;99.90;;;;;;5087387;28;20229;-84
2023/12/04 04:10:40;;;;;;;9.37;9.07;;;-5.40;99.90;;;;;;5087177;28;20227;-84
2023/12/04 04:13:09;;;;;;;9.53;9.23;;;-5.40;99.90;;;;;;5086826;28;20232;-83
2023/12/04 04:15:41;;;;;;;9.67;9.37;;;-5.60;99.90;;;;;;5087274;28;20224;-84
2023/12/04 04:18:09;;;;;;;9.60;9.30;;;-5.70;99.90;;;;;;5087258;28;20243;-84
2023/12/04 04:20:38;;;;;;;9.67;9.37;;;-5.70;99.90;;;;;;5086353;28;20243;-84
2023/12/04 04:23:06;;;;;;;9.37;9.07;;;-5.80;99.90;;;;;;5087016;28;20230;-84
2023/12/04 04:25:45;;;;;;;9.30;9.00;;;-5.90;99.90;;;;;;5087364;28;20258;-84
2023/12/04 04:28:14;;;;;;;9.47;9.17;;;-5.90;99.90;;;;;;5087108;28;20253;-84
2023/12/04 04:33:42;;;;;;;9.47;9.17;;;-5.90;99.90;;;;;;5188790;27;20530;-82
2023/12/04 04:39:05;;;;;;;9.37;9.07;;;-5.80;99.90;;;;;;5166361;27;20220;-83
2023/12/04 04:41:34;;;;;;;9.20;8.90;;;-5.80;99.90;;;;;;5177681;27;20217;-82
2023/12/04 04:44:13;;;;;;;9.60;9.30;;;-5.80;99.90;;;;;;5188845;27;20258;-83
2023/12/04 04:46:42;;;;;;;9.53;9.23;;;-5.80;99.90;;;;;;5197569;27;20266;-82
2023/12/04 04:49:13;;;;;;;9.37;9.07;;;-5.90;99.90;;;;;;5198591;27;20225;-83
2023/12/04 04:51:42;;;;;;;9.43;9.13;;;-5.80;99.90;;;;;;5188123;27;20224;-83
2023/12/04 04:56:51;;;;;;;9.57;9.27;;;-5.90;99.90;;;;;;5185936;27;20357;-83
2023/12/04 04:59:19;;;;;;;9.73;9.43;;;-5.80;99.90;;;;;;5187333;27;20228;-84
2023/12/04 05:01:59;;;;;;;9.37;9.07;;;-5.80;99.90;;;;;;5187705;27;20229;-83
2023/12/04 05:04:30;;;;;;;9.47;9.17;;;-5.80;99.90;;;;;;5187577;27;20233;-84
2023/12/04 05:06:57;;;;;;;9.07;8.77;;;-5.80;99.90;;;;;;5187276;27;20228;-83
2023/12/04 05:09:26;;;;;;;9.37;9.07;;;-5.80;99.90;;;;;;5187610;27;20320;-83
2023/12/04 05:11:55;;;;;;;9.23;8.93;;;-5.80;99.90;;;;;;5186997;27;20324;-83
2023/12/04 05:14:34;;;;;;;8.83;8.63;;;-5.80;99.90;;;;;;5187259;27;20225;-83
2023/12/04 05:17:04;;;;;;;9.17;8.87;;;-5.70;99.90;;;;;;5187924;27;20247;-83
2023/12/04 05:22:29;;;;;;;8.97;8.70;;;-5.70;99.90;;;;;;5192822;27;20209;-84
2023/12/04 05:24:58;;;;;;;9.20;8.90;;;-5.70;99.90;;;;;;5185684;27;20234;-83
2023/12/04 05:27:37;;;;;;;9.27;8.97;;;-5.70;99.90;;;;;;5186256;27;20250;-84
2023/12/04 05:30:08;;;;;;;8.90;8.70;;;-5.70;99.90;;;;;;5187003;27;20223;-84
2023/12/04 05:32:36;;;;;;;9.00;8.73;;;-5.60;99.90;;;;;;5186786;27;20313;-84
2023/12/04 05:37:51;;;;;;;8.83;8.63;;;-5.60;99.90;;;;;;5187692;27;20225;-84
2023/12/04 05:40:30;;;;;;;8.90;8.70;;;-5.60;99.90;;;;;;5187489;27;20236;-83
2023/12/04 05:42:59;;;;;;;9.20;8.90;;;-5.60;99.90;;;;;;5186849;27;20214;-84
2023/12/04 05:45:28;;;;;;;9.23;8.93;;;-5.60;99.90;;;;;;5174468;27;20321;-83
2023/12/04 05:47:58;;;;;;;9.00;8.77;;;-5.60;99.90;;;;;;5173187;27;20235;-84
2023/12/04 05:50:30;;;;;;;9.23;8.93;;;-5.60;99.90;;;;;;5172259;27;20217;-83
2023/12/04 05:52:58;;;;;;;8.63;8.43;;;-5.60;99.90;;;;;;5173275;27;20238;-84
2023/12/04 05:55:27;;;;;;;8.70;8.50;;;-5.50;99.90;;;;;;5172176;27;20326;-83
2023/12/04 05:57:56;;;;;;;9.63;9.33;;;-5.50;99.90;;;;;;5172236;27;20228;-84
2023/12/04 06:00:25;;;;;;;9.20;8.90;;;-5.50;99.90;;;;;;5172662;27;20270;-83
2023/12/04 06:02:54;;;;;;;9.00;8.77;;;-5.50;99.90;;;;;;5172810;27;20233;-83
2023/12/04 06:05:24;;;;;;;9.10;8.83;;;-5.50;99.90;;;;;;5173192;27;20282;-83
2023/12/04 06:10:40;;;;;;;9.80;9.50;;;-5.50;99.90;;;;;;5171558;27;20233;-83
2023/12/04 06:13:19;;;;;;;9.50;9.20;;;-5.50;99.90;;;;;;5173435;27;20225;-84
2023/12/04 06:15:49;;;;;;;9.47;9.17;;;-5.50;99.90;;;;;;5173076;27;20252;-83
2023/12/04 06:18:20;;;;;;;9.63;9.33;;;-5.50;99.90;;;;;;5172638;27;20235;-84
2023/12/04 06:20:48;;;;;;;9.50;9.20;;;-5.50;99.90;;;;;;5172420;27;20229;-83
2023/12/04 06:23:27;;;;;;;9.70;9.40;;;-5.50;99.90;;;;;;5172558;27;20212;-85
2023/12/04 06:25:55;;;;;;;9.57;9.27;;;-5.50;99.90;;;;;;5173132;27;20232;-83
2023/12/04 06:28:24;;;;;;;8.80;8.60;;;-5.50;99.90;;;;;;5173030;27;20229;-83
2023/12/04 06:30:53;;;;;;;9.50;9.20;;;-5.50;99.90;;;;;;5172192;27;20229;-85
2023/12/04 06:33:24;;;;;;;9.27;8.97;;;-5.40;99.90;;;;;;5171745;27;20355;-83
2023/12/04 06:35:52;;;;;;;9.40;9.10;;;-5.40;99.90;;;;;;5172158;27;20278;-84
2023/12/04 06:38:57;;;;;;;9.93;9.63;;;-5.30;99.90;;;;;;5153846;27;20254;-84
2023/12/04 06:41:27;;;;;;;9.80;9.50;;;-5.30;99.90;;;;;;5171761;27;20277;-84
2023/12/04 06:43:56;;;;;;;9.97;9.67;;;-5.30;99.90;;;;;;5173152;27;20210;-83
2023/12/04 06:46:28;;;;;;;9.63;9.33;;;-5.20;99.90;;;;;;5180029;27;20236;-83
2023/12/04 06:49:04;;;;;;;9.83;9.53;;;-5.30;99.90;;;;;;5182227;27;20269;-83
2023/12/04 06:54:23;;;;;;;10.13;9.83;;;-5.30;99.90;;;;;;5172605;27;20236;-83
2023/12/04 06:56:51;;;;;;;9.60;9.30;;;-5.30;99.90;;;;;;5171070;27;20236;-83
2023/12/04 06:59:31;;;;;;;9.47;9.17;;;-5.30;99.90;;;;;;5171713;27;20305;-84
2023/12/04 07:01:59;;;;;;;9.33;9.03;;;-5.30;99.90;;;;;;5169815;27;20237;-84
2023/12/04 07:04:38;;;;;;;9.47;9.17;;;-5.30;99.90;;;;;;5172236;27;20225;-83
2023/12/04 07:07:06;;;;;;;9.97;9.67;;;-5.30;99.90;;;;;;5171729;27;20234;-83
2023/12/04 07:09:39;;;;;;;9.57;9.27;;;-5.30;99.90;;;;;;5172038;27;20257;-84
2023/12/04 07:12:07;;;;;;;9.27;8.97;;;-5.20;99.90;;;;;;5171930;27;20232;-84
2023/12/04 07:14:35;;;;;;;9.50;9.20;;;-5.20;99.90;;;;;;5171805;27;20291;-83
2023/12/04 07:17:13;;;;;;;9.57;9.27;;;-5.20;99.90;;;;;;5175809;27;20221;-83
2023/12/04 07:19:43;;;;;;;9.27;8.97;;;-5.20;99.90;;;;;;5169650;27;20241;-84
2023/12/04 07:22:22;;;;;;;9.60;9.30;;;-5.20;99.90;;;;;;5169518;27;20234;-85
2023/12/04 07:24:52;;;;;;;9.77;9.47;;;-5.20;99.90;;;;;;5170758;27;20222;-85
2023/12/04 07:27:20;;;;;;;9.47;9.17;;;-5.10;99.90;;;;;;5171179;27;20212;-85
2023/12/04 07:29:59;;;;;;;9.27;8.97;;;-5.10;99.90;;;;;;5170624;27;20249;-84
2023/12/04 07:32:28;;;;;;;8.87;8.67;;;-5.10;99.90;;;;;;5170175;27;20261;-83
2023/12/04 07:34:57;;;;;;;9.60;9.30;;;-5.00;99.90;;;;;;5170900;27;20245;-85
2023/12/04 07:37:36;;;;;;;9.30;9.00;;;-5.00;99.90;;;;;;5172608;27;20230;-85
2023/12/04 07:45:29;;;;;;;9.13;8.83;;;-4.90;99.90;;;;;;5150791;27;20226;-84
2023/12/04 07:47:56;;;;;;;8.97;8.73;;;-4.90;99.90;;;;;;5150117;27;20277;-83
2023/12/04 07:50:24;;;;;;;9.47;9.17;;;-4.90;99.90;;;;;;5149930;27;20241;-83
2023/12/04 07:52:51;;;;;;;9.70;9.40;;;-4.90;99.90;;;;;;5150613;27;20243;-84
2023/12/04 07:55:21;;;;;;;9.23;8.93;;;-4.80;99.90;;;;;;5150367;27;20218;-84
2023/12/04 07:57:50;;;;;;;9.77;9.47;;;-4.80;99.90;;;;;;5150091;27;20280;-84
2023/12/04 08:00:19;;;;;;;9.43;9.13;;;-4.70;99.90;;;;;;5149956;27;20237;-84
2023/12/04 08:02:47;;;;;;;9.80;9.50;;;-4.70;99.90;;;;;;5151440;27;20227;-84
2023/12/04 08:05:27;;;;;;;9.20;8.90;;;-4.60;99.90;;;;;;5155123;27;20224;-84
2023/12/04 08:07:55;;;;;;;9.20;8.90;;;-4.50;99.90;;;;;;5152821;27;20222;-84
2023/12/04 08:13:21;;;;;;;9.33;9.03;;;-4.40;99.90;;;;;;5150492;27;20235;-84
2023/12/04 08:15:49;;;;;;;9.10;8.83;;;-4.30;99.90;;;;;;5149254;27;20223;-85
2023/12/04 08:18:28;;;;;;;9.43;9.13;;;-4.20;99.90;;;;;;5148873;27;20248;-84
2023/12/04 08:20:58;;;;;;;9.77;9.47;;;-4.20;99.90;;;;;;5150107;27;20228;-84
2023/12/04 08:23:26;;;;;;;9.30;9.00;;;-4.10;99.90;;;;;;5147558;27;20232;-85
2023/12/04 08:28:52;;;;;;;9.60;9.30;;;-4.00;99.90;;;;;;5149063;27;20312;-84
2023/12/04 08:31:21;;;;;;;8.90;8.70;;;-3.90;99.90;;;;;;5149542;27;20269;-84
2023/12/04 08:34:00;;;;;;;9.63;9.33;;;-3.90;99.90;;;;;;5149003;27;20681;-84
2023/12/04 08:36:29;;;;;;;9.37;9.07;;;-3.90;99.90;;;;;;5149412;27;20693;-84
2023/12/04 08:39:07;;;;;;;9.37;9.07;;;-3.80;99.90;;;;;;5149383;27;20242;-85
2023/12/04 08:44:34;;;;;;;9.40;9.10;;;-3.70;99.90;;;;;;5149049;27;20216;-85
2023/12/04 08:47:03;;;;;;;9.53;9.23;;;-3.70;99.90;;;;;;5149352;27;20238;-84
2023/12/04 08:49:31;;;;;;;9.83;9.53;;;-3.60;99.90;;;;;;5157442;27;20208;-84
2023/12/04 08:54:41;;;;;;;8.90;8.67;;;-3.60;99.90;;;;;;5149492;27;20247;-84
2023/12/04 08:57:12;;;;;;;9.47;9.17;;;-3.50;99.90;;;;;;5148961;27;20211;-85
2023/12/04 08:59:39;;;;;;;9.20;8.90;;;-3.40;99.90;;;;;;5149009;27;20228;-85
2023/12/04 09:02:10;;;;;;;10.00;9.70;;;-3.40;99.90;;;;;;5148351;27;20235;-84
2023/12/04 09:04:38;;;;;;;9.73;9.43;;;-3.40;99.90;;;;;;5148051;27;20220;-84
2023/12/04 09:07:18;;;;;;;9.87;9.57;;;-3.40;99.90;;;;;;5148994;27;20223;-84
2023/12/04 09:09:46;;;;;;;9.27;8.97;;;-3.40;99.90;;;;;;5152023;27;20228;-84
2023/12/04 09:12:15;;;;;;;9.90;9.60;;;-3.30;99.90;;;;;;5155831;22;20236;-79
2023/12/04 09:14:43;;;;;;;9.53;9.23;;;-3.30;99.90;;;;;;5142463;27;20255;-80
2023/12/04 09:17:11;;;;;;;9.63;9.33;;;-3.30;99.90;;;;;;5143365;27;20235;-80
2023/12/04 09:19:38;;;;;;;8.87;8.67;;;-3.30;99.90;;;;;;5145229;27;20232;-79
2023/12/04 09:22:06;;;;;;;9.60;9.30;;;-3.20;99.90;;;;;;5146930;27;20239;-79
2023/12/04 09:24:39;;;;;;;9.83;9.53;;;-3.20;99.90;;;;;;5147338;27;20212;-79
2023/12/04 09:27:07;;;;;;;9.80;9.50;;;-3.10;99.90;;;;;;5146699;27;20323;-79
2023/12/04 09:29:35;;;;;;;9.60;9.30;;;-3.10;99.90;;;;;;5146430;27;20285;-78
2023/12/04 09:32:03;;;;;;;9.47;9.17;;;-3.00;99.90;;;;;;5146869;27;20271;-80
2023/12/04 09:34:31;;;;;;;9.67;9.37;;;-2.90;99.90;;;;;;5147924;27;20228;-79
2023/12/04 09:36:58;;;;;;;9.53;9.23;;;-2.90;99.90;;;;;;5149051;27;20220;-79
2023/12/04 09:39:25;;;;;;;9.27;8.97;;;-2.80;99.90;;;;;;5148626;27;20228;-80
2023/12/04 09:41:53;;;;;;;9.20;8.90;;;-2.60;99.90;;;;;;5149540;27;20236;-80
2023/12/04 09:44:22;;;;;;;8.90;8.70;;;-2.60;99.90;;;;;;5148187;27;20316;-79
2023/12/04 09:46:52;;;;;;;9.30;9.00;;;-2.60;99.90;;;;;;5147393;27;20267;-80
2023/12/04 09:49:20;;;;;;;9.30;9.00;;;-2.70;99.90;;;;;;5146437;27;20228;-80
2023/12/04 09:51:49;;;;;;;9.50;9.20;;;-2.70;99.90;;;;;;5146493;27;20232;-79
2023/12/04 09:54:19;;;;;;;9.70;9.40;;;-2.60;99.90;;;;;;5145825;27;20232;-79
2023/12/04 09:56:47;;;;;;;9.50;9.20;;;-2.60;99.90;;;;;;5148226;27;20220;-79
2023/12/04 09:59:16;;;;;;;9.40;9.10;;;-2.60;99.90;;;;;;5156574;27;20243;-79
2023/12/04 10:01:47;;;;;;;9.47;9.17;;;-2.70;99.90;;;;;;5156570;27;20228;-79
2023/12/04 10:04:16;;;;;;;9.57;9.27;;;-2.60;99.90;;;;;;5157572;27;20225;-79
2023/12/04 10:06:45;;;;;;;9.53;9.23;;;-2.60;99.90;;;;;;5153187;27;20224;-79
2023/12/04 10:09:13;;;;;;;9.43;9.13;;;-2.50;99.90;;;;;;5147055;27;20704;-79
2023/12/04 10:11:42;;;;;;;9.53;9.23;;;-2.50;99.90;;;;;;5145953;27;20263;-79
2023/12/04 10:14:17;;;;;;;9.60;9.30;;;-2.60;99.90;;;;;;5146472;27;20235;-79
2023/12/04 10:16:45;;;;;;;9.57;9.27;;;-2.70;99.90;;;;;;5146011;27;20239;-79
2023/12/04 10:19:20;;;;;;;9.60;9.30;;;-2.80;99.90;;;;;;5149196;27;20232;-78
2023/12/04 10:21:48;;;;;;;9.40;9.10;;;-2.80;99.90;;;;;;5146105;27;20231;-80
2023/12/04 10:24:30;;;;;;;9.63;9.33;;;-2.70;99.90;;;;;;5146698;27;20298;-79
2023/12/04 10:26:58;;;;;;;9.87;9.57;;;-2.60;99.90;;;;;;5145625;27;20282;-79
2023/12/04 10:29:29;;;;;;;9.67;9.37;;;-2.50;99.90;;;;;;5146626;27;20277;-79
2023/12/04 10:32:00;;;;;;;9.43;9.13;;;-2.50;99.90;;;;;;5146177;27;20236;-79
2023/12/04 10:34:33;;;;;;;9.40;9.10;;;-2.40;99.90;;;;;;5145657;27;20236;-79
2023/12/04 10:37:01;;;;;;;9.13;8.87;;;-2.30;99.90;;;;;;5144937;27;20311;-79
2023/12/04 10:39:29;;;;;;;9.40;9.10;;;-2.20;99.90;;;;;;5145860;27;20230;-80
2023/12/04 10:42:04;;;;;;;9.37;9.07;;;-2.20;99.90;;;;;;5145942;27;20236;-79
2023/12/04 10:44:33;;;;;;;9.50;9.20;;;-2.20;99.90;;;;;;5145573;27;20275;-80
2023/12/04 10:47:02;;;;;;;9.77;9.47;;;-2.20;99.90;;;;;;5145746;27;20224;-79
2023/12/04 10:49:31;;;;;;;9.27;8.97;;;-2.20;99.90;;;;;;5148786;27;20423;-79
2023/12/04 10:51:59;;;;;;;9.33;9.03;;;-2.10;99.90;;;;;;5147832;27;20253;-80
2023/12/04 10:54:26;;;;;;;9.50;9.20;;;-2.10;99.90;;;;;;5147466;27;20243;-80
2023/12/04 10:56:54;;;;;;;9.70;9.40;;;-2.00;99.90;;;;;;5144929;27;20729;-80
2023/12/04 10:59:31;;;;;;;9.57;9.27;;;-1.90;99.90;;;;;;5145136;27;20232;-80
2023/12/04 11:02:03;;;;;;;9.70;9.40;;;-2.00;99.90;;;;;;5145780;27;20237;-80
2023/12/04 11:04:33;;;;;;;9.57;9.27;;;-1.90;99.90;;;;;;5145236;27;20224;-79
2023/12/04 11:07:04;;;;;;;9.63;9.33;;;-1.90;99.90;;;;;;5146522;27;20280;-80
2023/12/04 11:09:36;;;;;;;9.70;9.40;;;-1.80;99.90;;;;;;5145958;27;20221;-79
2023/12/04 11:12:10;;;;;;;8.73;8.53;;;-1.80;99.90;;;;;;5145031;27;20230;-80
2023/12/04 11:14:44;;;;;;;9.70;9.40;;;-1.80;99.90;;;;;;5146376;27;20223;-80
2023/12/04 11:17:15;;;;;;;9.50;9.20;;;-1.80;99.90;;;;;;5145193;27;20235;-81
2023/12/04 11:19:55;;;;;;;9.33;9.03;;;-1.70;99.90;;;;;;5145625;27;20224;-79
2023/12/04 11:22:23;;;;;;;9.67;9.37;;;-1.70;99.90;;;;;;5145487;27;20240;-80
2023/12/04 11:24:50;;;;;;;9.57;9.27;;;-1.70;99.90;;;;;;5144782;27;20230;-80
2023/12/04 11:27:19;;;;;;;9.53;9.23;;;-1.60;99.90;;;;;;5144846;27;20233;-80
2023/12/04 11:29:47;;;;;;;9.60;9.30;;;-1.50;99.90;;;;;;5146604;27;20230;-81
2023/12/04 11:32:16;;;;;;;9.80;9.50;;;-1.50;99.90;;;;;;5145364;27;20255;-79
2023/12/04 11:34:53;;;;;;;9.70;9.40;;;-1.50;99.90;;;;;;5144648;27;20248;-79
2023/12/04 11:37:21;;;;;;;9.60;9.30;;;-1.50;99.90;;;;;;5144670;27;20225;-79
2023/12/04 11:39:52;;;;;;;9.83;9.53;;;-1.60;99.90;;;;;;5145069;27;20224;-80
2023/12/04 11:42:24;;;;;;;8.73;8.53;;;-1.60;99.90;;;;;;5144442;27;20233;-80
2023/12/04 11:44:59;;;;;;;9.23;8.93;;;-1.60;99.90;;;;;;5145570;27;20220;-79
2023/12/04 11:47:29;;;;;;;9.73;9.43;;;-1.60;99.90;;;;;;5144755;27;20252;-80
2023/12/04 11:49:59;;;;;;;9.47;9.17;;;-1.60;99.90;;;;;;5145542;27;20239;-80
2023/12/04 11:52:35;;;;;;;9.23;8.93;;;-1.70;99.90;;;;;;5145006;27;20303;-80
2023/12/04 11:55:05;;;;;;;9.70;9.40;;;-1.70;99.90;;;;;;5145274;27;20223;-80
2023/12/04 11:57:34;;;;;;;9.23;8.93;;;-1.80;99.90;;;;;;5144723;27;20271;-80
2023/12/04 12:00:21;;;;;;;9.53;9.23;;;-1.70;99.90;;;;;;5145639;27;20277;-80
2023/12/04 12:03:04;;;;;;;9.70;9.40;;;-1.70;99.90;;;;;;5146673;27;20243;-79
2023/12/04 12:05:34;;;;;;;9.83;9.53;;;-1.80;99.90;;;;;;5146099;27;20220;-80
2023/12/04 12:08:06;;;;;;;9.47;9.17;;;-1.90;99.90;;;;;;5145607;27;20228;-80
2023/12/04 12:10:34;;;;;;;9.43;9.13;;;-1.80;99.90;;;;;;5146981;27;20253;-80
2023/12/04 12:13:02;;;;;;;9.47;9.17;;;-1.80;99.90;;;;;;5146385;27;20305;-80
2023/12/04 12:15:30;;;;;;;9.77;9.47;;;-1.80;99.90;;;;;;5147092;27;20238;-79
2023/12/04 12:17:57;;;;;;;9.80;9.50;;;-1.80;99.90;;;;;;5147716;27;20273;-80
2023/12/04 12:20:26;;;;;;;9.57;9.27;;;-1.80;99.90;;;;;;5147701;27;20226;-80
2023/12/04 12:22:55;;;;;;;9.37;9.07;;;-1.70;99.90;;;;;;5148787;27;20250;-80
2023/12/04 12:25:23;;;;;;;9.47;9.17;;;-1.70;99.90;;;;;;5145541;27;20222;-80
2023/12/04 12:27:51;;;;;;;9.67;9.37;;;-1.60;99.90;;;;;;5145199;27;20346;-80
2023/12/04 12:30:19;;;;;;;9.57;9.27;;;-1.60;99.90;;;;;;5144326;27;20220;-80
2023/12/04 12:32:46;;;;;;;8.93;8.73;;;-1.60;99.90;;;;;;5145021;27;20224;-80
2023/12/04 12:35:13;;;;;;;9.47;9.17;;;-1.50;99.90;;;;;;5144189;27;20221;-78
2023/12/04 12:37:41;;;;;;;9.13;8.83;;;-1.50;99.90;;;;;;5142585;27;20229;-78
2023/12/04 12:40:11;;;;;;;9.40;9.10;;;-1.60;99.90;;;;;;5143020;27;20229;-80
2023/12/04 12:42:41;;;;;;;9.57;9.27;;;-1.60;99.90;;;;;;5142369;27;20232;-77
2023/12/04 12:45:11;;;;;;;9.33;9.03;;;-1.70;99.90;;;;;;5143046;27;20241;-78
2023/12/04 12:47:38;;;;;;;9.80;9.50;;;-1.70;99.90;;;;;;5143740;27;20229;-80
2023/12/04 12:50:13;;;;;;;9.50;9.20;;;-1.80;99.90;;;;;;5143432;27;20274;-81
2023/12/04 12:52:41;;;;;;;8.93;8.73;;;-1.80;99.90;;;;;;5142691;27;20344;-78
2023/12/04 12:55:10;;;;;;;9.57;9.27;;;-1.80;99.90;;;;;;5145444;27;20283;-80
2023/12/04 12:57:38;;;;;;;9.53;9.23;;;-1.80;99.90;;;;;;5145755;27;20286;-78
2023/12/04 13:00:08;;;;;;;9.40;9.10;;;-1.80;99.90;;;;;;5146710;27;20272;-80
2023/12/04 13:02:37;;;;;;;9.60;9.30;;;-1.90;99.90;;;;;;5148817;27;20284;-79
2023/12/04 13:05:07;;;;;;;9.80;9.50;;;-1.90;99.90;;;;;;5149068;27;20224;-79
2023/12/04 13:07:34;;;;;;;9.77;9.47;;;-1.90;99.90;;;;;;5148716;27;20232;-79
2023/12/04 13:10:04;;;;;;;9.37;9.07;;;-1.90;99.90;;;;;;5148284;27;20228;-79
2023/12/04 13:12:33;;;;;;;9.50;9.20;;;-1.90;99.90;;;;;;5148236;27;20236;-79
2023/12/04 13:15:00;;;;;;;9.13;8.83;;;-1.80;99.90;;;;;;5148171;27;20237;-79
2023/12/04 13:17:30;;;;;;;9.50;9.20;;;-1.80;99.90;;;;;;5147808;27;20220;-79
2023/12/04 13:20:04;;;;;;;9.90;9.60;;;-1.80;99.90;;;;;;5147907;27;20327;-79
2023/12/04 13:22:33;;;;;;;9.60;9.30;;;-1.80;99.90;;;;;;5147864;27;20323;-79
2023/12/04 13:25:07;;;;;;;9.27;8.97;;;-1.80;99.90;;;;;;5147880;27;20266;-79
2023/12/04 13:27:36;;;;;;;9.77;9.47;;;-1.90;99.90;;;;;;5148154;27;20247;-79
2023/12/04 13:30:03;;;;;;;9.80;9.50;;;-1.90;99.90;;;;;;5147725;27;20232;-79
2023/12/04 13:32:33;;;;;;;9.70;9.40;;;-1.90;99.90;;;;;;5149492;27;20254;-80
2023/12/04 13:35:04;;;;;;;9.80;9.50;;;-1.80;99.90;;;;;;5148976;27;20238;-79
2023/12/04 13:37:31;;;;;;;9.60;9.30;;;-1.90;99.90;;;;;;5147974;27;20270;-78
2023/12/04 13:40:04;;;;;;;9.97;9.67;;;-1.80;99.90;;;;;;5158625;27;20222;-78
2023/12/04 13:45:20;;;;;;;9.80;9.50;;;-1.80;99.90;;;;;;5151228;27;20224;-81